createdAt,value
2022-08-07T00:00:06.836Z,2.90
2022-08-07T00:02:40.704Z,2.88
2022-08-07T00:05:08.154Z,2.53
2022-08-07T00:07:40.098Z,2.70
2022-08-07T00:10:25.952Z,3.00
2022-08-07T00:12:57.845Z,2.40
2022-08-07T00:15:26.386Z,2.72
2022-08-07T00:18:05.444Z,2.63
2022-08-07T00:20:34.534Z,2.67
2022-08-07T00:23:02.200Z,2.63
2022-08-07T00:25:28.616Z,2.60
2022-08-07T00:28:03.814Z,2.58
2022-08-07T00:30:31.324Z,2.72
2022-08-07T00:32:58.795Z,2.78
2022-08-07T00:35:25.795Z,2.70
2022-08-07T00:37:52.962Z,2.55
2022-08-07T00:40:40.040Z,3.03
2022-08-07T00:43:10.004Z,2.25
2022-08-07T00:45:37.372Z,2.90
2022-08-07T00:48:09.220Z,2.50
2022-08-07T00:50:50.739Z,2.42
2022-08-07T00:53:18.011Z,2.42
2022-08-07T00:56:02.582Z,2.25
2022-08-07T00:58:30.036Z,2.70
2022-08-07T01:00:56.397Z,2.30
2022-08-07T01:03:55.449Z,2.70
2022-08-07T01:06:09.553Z,2.38
2022-08-07T01:08:43.090Z,2.75
2022-08-07T01:12:27.439Z,2.47
2022-08-07T01:14:04.661Z,2.70
2022-08-07T01:16:31.460Z,2.63
2022-08-07T01:18:58.349Z,2.75
2022-08-07T01:21:26.934Z,2.50
2022-08-07T01:23:55.139Z,2.65
2022-08-07T01:26:22.516Z,2.28
2022-08-07T01:28:53.699Z,2.67
2022-08-07T01:31:21.012Z,2.50
2022-08-07T01:33:55.625Z,2.30
2022-08-07T01:36:31.076Z,2.25
2022-08-07T01:39:00.616Z,2.30
2022-08-07T01:41:27.453Z,2.95
2022-08-07T01:43:53.913Z,2.40
2022-08-07T01:46:21.350Z,2.50
2022-08-07T01:48:48.350Z,2.35
2022-08-07T01:52:02.129Z,2.53
2022-08-07T01:54:19.216Z,2.50
2022-08-07T01:56:51.072Z,2.20
2022-08-07T01:59:20.081Z,2.00
2022-08-07T02:02:01.628Z,2.40
2022-08-07T02:04:56.299Z,2.33
2022-08-07T02:07:25.925Z,2.58
2022-08-07T02:10:14.453Z,2.13
2022-08-07T02:12:42.284Z,2.30
2022-08-07T02:15:13.195Z,2.40
2022-08-07T02:17:40.986Z,2.17
2022-08-07T02:20:17.107Z,2.88
2022-08-07T02:22:46.353Z,2.20
2022-08-07T02:25:17.318Z,2.50
2022-08-07T02:27:51.999Z,2.67
2022-08-07T02:30:19.428Z,2.40
2022-08-07T02:33:07.282Z,3.03
2022-08-07T02:36:28.479Z,2.78
2022-08-07T02:38:22.774Z,2.28
2022-08-07T02:40:56.143Z,2.35
2022-08-07T02:43:23.008Z,2.45
2022-08-07T02:46:00.630Z,2.08
2022-08-07T02:48:29.053Z,2.30
2022-08-07T02:50:56.084Z,2.38
2022-08-07T02:53:27.591Z,2.13
2022-08-07T02:56:03.730Z,2.30
2022-08-07T02:58:33.250Z,2.05
2022-08-07T03:01:00.315Z,2.10
2022-08-07T03:03:49.479Z,2.35
2022-08-07T03:06:25.824Z,2.25
2022-08-07T03:08:59.390Z,2.13
2022-08-07T03:11:26.365Z,2.40
2022-08-07T03:13:57.574Z,2.60
2022-08-07T03:16:28.527Z,2.20
2022-08-07T03:18:57.132Z,2.33
2022-08-07T03:21:24.425Z,2.80
2022-08-07T03:24:20.720Z,2.50
2022-08-07T03:26:50.995Z,2.90
2022-08-07T03:29:20.572Z,3.20
2022-08-07T03:31:49.806Z,2.60
2022-08-07T03:34:18.240Z,2.88
2022-08-07T03:36:45.702Z,2.80
2022-08-07T03:39:13.918Z,2.63
2022-08-07T03:41:47.448Z,2.77
2022-08-07T03:44:21.695Z,2.90
2022-08-07T03:47:10.937Z,2.60
2022-08-07T03:49:38.767Z,2.75
2022-08-07T03:52:07.592Z,2.38
2022-08-07T03:54:54.404Z,2.83
2022-08-07T03:58:33.675Z,2.75
2022-08-07T04:00:11.693Z,2.67
2022-08-07T04:02:41.102Z,2.70
2022-08-07T04:05:07.988Z,3.50
2022-08-07T04:07:41.678Z,2.42
2022-08-07T04:10:15.741Z,2.50
2022-08-07T04:12:47.236Z,2.30
2022-08-07T04:15:14.791Z,2.50
2022-08-07T04:18:31.360Z,2.50
2022-08-07T04:20:29.120Z,2.30
2022-08-07T04:23:01.774Z,2.30
2022-08-07T04:25:29.160Z,2.23
2022-08-07T04:27:59.287Z,2.40
2022-08-07T04:30:43.623Z,2.73
2022-08-07T04:33:15.521Z,2.53
2022-08-07T19:50:45.190Z,3.28
2022-08-07T19:54:35.361Z,3.13
2022-08-07T19:56:05.909Z,3.45
2022-08-07T19:58:52.295Z,3.28
2022-08-07T20:01:20.236Z,3.30
2022-08-07T20:03:48.885Z,3.50
2022-08-07T20:06:30.539Z,3.30
2022-08-07T20:09:01.941Z,3.30
2022-08-07T20:12:22.101Z,3.20
2022-08-07T20:14:31.452Z,3.25
2022-08-07T20:17:00.009Z,3.40
2022-08-07T20:19:48.214Z,3.50
2022-08-07T20:22:28.915Z,3.28
2022-08-07T20:25:06.241Z,3.70
2022-08-07T20:27:46.114Z,4.00
2022-08-07T20:30:13.468Z,3.22
2022-08-07T20:32:54.685Z,4.28
2022-08-07T20:35:28.430Z,4.10
2022-08-07T20:37:58.683Z,3.90
2022-08-07T20:40:33.084Z,3.67
2022-08-07T20:43:01.488Z,3.97
2022-08-07T20:46:24.963Z,3.50
2022-08-07T20:48:28.270Z,4.13
2022-08-07T20:50:58.471Z,4.88
2022-08-07T20:53:25.868Z,3.80
2022-08-07T20:56:12.030Z,3.90
2022-08-07T20:58:40.554Z,4.40
2022-08-07T21:01:19.608Z,3.95
2022-08-07T21:04:13.098Z,3.75
2022-08-07T21:06:36.131Z,4.38
2022-08-07T21:09:15.124Z,4.63
2022-08-07T21:11:50.882Z,4.43
2022-08-07T21:14:32.576Z,4.15
2022-08-07T21:18:01.293Z,5.30
2022-08-07T21:20:05.309Z,4.00
2022-08-07T21:22:39.743Z,4.32
2022-08-07T21:25:19.012Z,4.60
2022-08-07T21:28:01.753Z,4.78
2022-08-07T21:30:52.173Z,4.60
2022-08-07T21:33:41.129Z,4.68
2022-08-07T21:36:31.292Z,4.80
2022-08-07T21:39:46.084Z,5.07
2022-08-07T21:42:14.844Z,5.05
2022-08-07T21:44:55.801Z,4.53
2022-08-07T21:47:32.087Z,4.72
2022-08-07T21:50:21.492Z,4.80
2022-08-07T21:52:52.221Z,4.60
2022-08-07T21:55:27.846Z,3.72
2022-08-07T21:58:08.071Z,4.40
2022-08-07T22:00:41.029Z,4.18
2022-08-07T22:03:17.383Z,4.38
2022-08-07T22:06:32.353Z,4.63
2022-08-07T22:09:03.211Z,5.88
2022-08-07T22:12:05.959Z,7.43
2022-08-07T22:14:23.680Z,8.68
2022-08-07T22:17:04.088Z,8.07
2022-08-07T22:19:41.545Z,7.25
2022-08-07T22:22:21.164Z,5.05
2022-08-07T22:25:13.194Z,4.32
2022-08-07T22:28:08.337Z,4.35
2022-08-07T22:30:53.061Z,4.85
2022-08-07T22:33:53.252Z,4.68
2022-08-07T22:36:14.008Z,4.88
2022-08-07T22:38:53.122Z,5.18
2022-08-07T22:41:29.119Z,5.45
2022-08-07T22:44:18.490Z,5.15
2022-08-07T22:47:04.171Z,5.25
2022-08-07T22:49:39.416Z,4.95
2022-08-07T22:52:37.270Z,4.70
2022-08-07T22:55:17.344Z,4.78
2022-08-07T22:58:11.583Z,5.20
2022-08-07T23:00:45.949Z,4.90
2022-08-07T23:03:12.269Z,5.43
2022-08-07T23:06:16.826Z,5.18
2022-08-07T23:10:05.321Z,5.15
2022-08-07T23:12:06.096Z,5.28
2022-08-07T23:14:37.692Z,5.43
2022-08-07T23:17:19.980Z,5.20
2022-08-07T23:20:51.696Z,5.18
2022-08-07T23:24:05.888Z,5.28
2022-08-07T23:26:27.375Z,5.55
2022-08-07T23:28:56.326Z,5.35
2022-08-07T23:32:49.639Z,5.10
2022-08-07T23:34:37.767Z,5.38
2022-08-07T23:37:19.398Z,4.90
2022-08-07T23:40:02.494Z,5.50
2022-08-07T23:42:46.936Z,6.05
2022-08-07T23:45:33.132Z,5.28
2022-08-07T23:48:30.678Z,4.97
2022-08-07T23:51:00.693Z,5.07
2022-08-07T23:53:49.634Z,5.25
2022-08-07T23:56:31.290Z,4.90
2022-08-07T23:59:10.781Z,4.90
